createdAt,value
2023-01-30T00:01:41.817Z,81.40
2023-01-30T00:04:53.188Z,80.95
2023-01-30T00:08:01.303Z,81.20
2023-01-30T00:11:13.584Z,80.44
2023-01-30T00:14:22.952Z,80.77
2023-01-30T00:17:31.870Z,78.08
2023-01-30T00:20:41.458Z,76.36
2023-01-30T00:23:56.180Z,76.51
2023-01-30T00:27:05.604Z,78.27
2023-01-30T00:30:13.306Z,80.62
2023-01-30T00:33:21.925Z,81.45
2023-01-30T00:36:33.416Z,81.02
2023-01-30T00:39:42.686Z,81.26
2023-01-30T00:43:05.680Z,79.88
2023-01-30T00:46:35.755Z,78.43
2023-01-30T00:49:48.906Z,78.77
2023-01-30T00:53:01.139Z,79.61
2023-01-30T00:56:08.800Z,80.20
2023-01-30T00:59:17.227Z,82.42
2023-01-30T01:02:23.776Z,83.47
2023-01-30T01:05:37.619Z,83.88
2023-01-30T01:08:51.830Z,83.91
2023-01-30T01:12:12.772Z,84.46
2023-01-30T01:15:20.998Z,84.86
2023-01-30T01:18:27.734Z,84.16
2023-01-30T01:21:36.403Z,85.24
2023-01-30T01:24:45.320Z,84.68
2023-01-30T01:27:55.014Z,85.44
2023-01-30T01:31:06.694Z,84.68
2023-01-30T01:34:14.887Z,85.17
2023-01-30T01:37:26.372Z,85.86
2023-01-30T01:40:58.851Z,84.36
2023-01-30T01:44:09.002Z,81.45
2023-01-30T01:47:15.783Z,81.34
2023-01-30T01:50:27.683Z,80.03
2023-01-30T01:53:39.168Z,80.42
2023-01-30T01:56:52.237Z,80.81
2023-01-30T02:00:08.351Z,79.92
2023-01-30T02:03:23.106Z,79.41
2023-01-30T02:06:37.531Z,80.50
2023-01-30T02:09:46.781Z,80.86
2023-01-30T02:13:13.818Z,81.47
2023-01-30T02:16:34.414Z,80.96
2023-01-30T02:19:54.102Z,81.53
2023-01-30T02:23:30.549Z,82.07
2023-01-30T02:27:39.460Z,79.26
2023-01-30T02:31:19.895Z,77.82
2023-01-30T02:34:50.209Z,79.66
2023-01-30T02:57:46.678Z,83.26
2023-01-30T03:37:16.441Z,81.92
2023-01-30T03:46:11.413Z,82.87
2023-01-30T04:50:07.820Z,74.34
2023-01-30T04:54:07.827Z,74.08
2023-01-30T05:02:45.513Z,75.10
2023-01-30T05:11:48.805Z,75.21
2023-01-30T05:42:53.431Z,75.39
2023-01-30T06:51:19.295Z,75.61
